• Join FlightAware (Why Join?)
  • Login
  • US Flag 
03:18AM EDT


 

Airport Tracker/Info


-or-


 

Live Flight TrackerFlight Track Log ✈ ASQ5244 ✈ 03-May-2012 ✈ KMGM - KATL

Flight Track Log - Related Links

Times and Time Zones

All times are in EDT time to prevent confusion due to time zone crossing. See the ASQ5244 flight status page for this flight to view local times or setup timezone preferences in your user account.

Time Position Orientation Groundspeed Altitude Reporting Facility
EDT Latitude Longitude Course Direction KTS MPH feet Rate Location/Type
10:30AM 32.3092 -86.3650 69° East  Level FlightAware Approximate
10:31AM 32.3467 -86.2467 51° Northeast 255 293 5,000  Level Atlanta Center
10:32AM 32.3961 -86.1742 52° Northeast 308 354 7,600 2,520 Climbing Atlanta Center
10:33AM 32.4497 -86.0917 51° Northeast 315 362 10,100 1,800 Climbing Atlanta Center
10:34AM 32.5075 -86.0067 50° Northeast 315 362 11,200 1,500 Climbing Atlanta Center
10:35AM 32.5714 -85.9169 51° Northeast 341 392 13,100 1,920 Climbing Atlanta Center
10:36AM 32.6333 -85.8247 52° Northeast 353 406 15,100 1,800 Climbing Atlanta Center
10:37AM 32.6972 -85.7272 50° Northeast 364 419 16,800 1,260 Climbing Atlanta Center
10:38AM 32.7653 -85.6297 51° Northeast 364 419 17,700 600 Climbing Atlanta Center
10:39AM 32.8356 -85.5272 52° Northeast 386 444 18,000 120 Climbing Atlanta Center
10:40AM 32.8994 -85.4292 50° Northeast 399 459 18,000  Level Atlanta Center
10:41AM 32.9714 -85.3264 50° Northeast 404 465 18,000 -960 Level Atlanta Center
10:42AM 33.0414 -85.2258 49° Northeast 405 466 16,100 -2,280 Descending Atlanta Center
10:43AM 33.1175 -85.1203 46° Northeast 388 447 13,500 -2,040 Descending Atlanta Center
10:44AM 33.1850 -85.0367 50° Northeast 367 422 12,100 -1,200 Descending Atlanta Center
10:45AM 33.2378 -84.9603 47° Northeast 317 365 11,100 -1,260 Descending Atlanta Center
10:46AM 33.2925 -84.8889 30° Northeast 297 342 9,600 -1,560 Descending Atlanta Center
10:47AM 33.3639 -84.8397 19° North 284 327 8,000 -1,560 Descending Atlanta Center
10:48AM 33.4392 -84.8081 33° Northeast 276 318 6,500 -1,680 Descending Atlanta Center
10:49AM 33.5019 -84.7589 37° Northeast 271 312 4,700 -1,500 Descending Atlanta Center
10:50AM 33.5628 -84.7044 46° Northeast 271 312 3,500 -660 Descending Atlanta Center
10:51AM 33.6111 -84.6450 67° East 258 297 3,500 -300 Level Atlanta Center
10:52AM 33.6333 -84.5833 90° East 194 223 3,000 -660 Descending Atlanta TRACON
10:53AM 33.6333 -84.5333 90° East 182 209 2,300 -840 Descending Atlanta TRACON
10:54AM 33.6333 -84.4667 90° East 149 171 1,500 -840 Descending Atlanta TRACON